createdAt,value
2022-12-18T00:00:05.992Z,33.53
2022-12-18T00:02:41.677Z,33.78
2022-12-18T00:05:09.533Z,33.42
2022-12-18T00:07:40.128Z,33.70
2022-12-18T00:10:08.130Z,37.25
2022-12-18T00:12:38.740Z,39.17
2022-12-18T00:15:07.010Z,39.85
2022-12-18T00:17:34.608Z,38.05
2022-12-18T00:20:02.324Z,36.97
2022-12-18T00:22:30.065Z,37.85
2022-12-18T00:24:57.774Z,38.67
2022-12-18T00:27:25.846Z,40.42
2022-12-18T00:32:23.255Z,34.33
2022-12-18T00:34:50.812Z,34.67
2022-12-18T00:37:20.299Z,34.75
2022-12-18T00:39:54.761Z,34.47
2022-12-18T00:42:40.970Z,32.00
2022-12-18T00:45:12.556Z,32.75
2022-12-18T00:47:41.110Z,32.05
2022-12-18T00:50:09.282Z,34.17
2022-12-18T00:52:36.905Z,32.53
2022-12-18T00:55:06.586Z,33.03
2022-12-18T00:57:34.295Z,32.40
2022-12-18T01:00:02.167Z,33.08
2022-12-18T01:02:30.403Z,30.58
2022-12-18T01:04:58.354Z,31.52
2022-12-18T01:07:26.120Z,30.90
2022-12-18T01:09:53.808Z,30.20
2022-12-18T01:12:21.370Z,33.75
2022-12-18T01:14:51.690Z,31.45
2022-12-18T01:17:19.170Z,32.10
2022-12-18T01:19:47.305Z,31.60
2022-12-18T01:22:14.936Z,29.52
2022-12-18T01:24:42.502Z,32.13
2022-12-18T01:27:10.027Z,32.97
2022-12-18T01:29:37.649Z,31.33
2022-12-18T01:32:08.472Z,31.77
2022-12-18T01:34:43.050Z,29.83
2022-12-18T01:37:13.507Z,29.00
2022-12-18T01:39:41.247Z,30.90
2022-12-18T01:42:21.069Z,30.38
2022-12-18T01:45:08.032Z,31.08
2022-12-18T01:47:48.530Z,31.65
2022-12-18T01:50:17.616Z,29.48
2022-12-18T01:52:59.070Z,32.03
2022-12-18T01:55:30.293Z,30.17
2022-12-18T01:58:00.858Z,28.70
2022-12-18T02:00:29.762Z,30.42
2022-12-18T02:02:57.936Z,30.02
2022-12-18T02:08:23.873Z,27.30
2022-12-18T02:11:01.109Z,28.45
2022-12-18T02:14:04.135Z,29.73
2022-12-18T02:16:45.115Z,27.58
2022-12-18T02:19:56.251Z,27.40
2022-12-18T02:22:29.831Z,27.70
2022-12-18T02:25:35.068Z,26.92
2022-12-18T02:28:07.304Z,28.13
2022-12-18T02:30:38.845Z,27.70
2022-12-18T02:33:09.592Z,27.42
2022-12-18T02:35:39.160Z,27.48
2022-12-18T02:38:07.683Z,28.33
2022-12-18T02:40:39.266Z,26.40
2022-12-18T02:43:16.260Z,25.85
2022-12-18T02:45:49.550Z,27.15
2022-12-18T02:48:23.615Z,25.33
2022-12-18T02:51:20.456Z,25.48
2022-12-18T02:54:01.871Z,24.73
2022-12-18T02:56:39.685Z,26.95
2022-12-18T02:59:34.792Z,26.40
2022-12-18T03:02:27.377Z,25.63
2022-12-18T03:05:13.095Z,26.58
2022-12-18T03:07:51.711Z,25.98
2022-12-18T03:10:29.351Z,27.05
2022-12-18T03:13:21.715Z,26.75
2022-12-18T03:15:52.647Z,26.55
2022-12-18T03:18:24.607Z,26.20
2022-12-18T03:20:56.430Z,25.50
2022-12-18T03:23:28.610Z,25.40
2022-12-18T03:26:07.156Z,24.83
2022-12-18T03:28:42.961Z,25.55
2022-12-18T03:31:13.846Z,24.10
2022-12-18T03:33:54.933Z,25.25
2022-12-18T03:36:28.790Z,24.83
2022-12-18T03:38:56.487Z,24.15
2022-12-18T03:41:35.559Z,24.60
2022-12-18T03:44:30.867Z,24.58
2022-12-18T03:47:27.379Z,25.77
2022-12-18T03:50:14.745Z,25.23
2022-12-18T03:53:07.635Z,26.05
2022-12-18T03:55:40.904Z,27.25
2022-12-18T03:58:11.730Z,28.25
2022-12-18T04:01:02.840Z,28.65
2022-12-18T04:03:36.282Z,27.40
2022-12-18T04:06:06.189Z,27.77
2022-12-18T04:08:35.890Z,28.20
2022-12-18T04:11:07.313Z,27.15
2022-12-18T04:13:37.906Z,26.65
2022-12-18T04:16:10.506Z,26.02
2022-12-18T04:18:49.456Z,29.25
2022-12-18T04:21:17.502Z,29.23
2022-12-18T04:23:45.872Z,28.00
2022-12-18T04:26:17.455Z,29.23
2022-12-18T04:29:05.232Z,29.58
2022-12-18T04:31:33.390Z,29.42
2022-12-18T04:36:29.726Z,28.63
2022-12-18T04:38:57.406Z,29.65
2022-12-18T04:41:25.129Z,32.47
2022-12-18T04:43:54.585Z,31.33
2022-12-18T04:46:22.233Z,31.50
2022-12-18T04:48:49.865Z,32.95
2022-12-18T04:51:20.836Z,33.80
2022-12-18T04:53:52.231Z,32.95
2022-12-18T04:56:19.686Z,32.25
2022-12-18T04:58:47.292Z,35.88
2022-12-18T05:01:19.448Z,34.40
2022-12-18T05:03:47.392Z,33.67
2022-12-18T05:06:15.251Z,34.28
2022-12-18T05:08:45.201Z,33.50
2022-12-18T05:11:18.946Z,35.22
2022-12-18T05:13:46.794Z,33.17
2022-12-18T05:16:15.391Z,35.08
2022-12-18T05:18:43.776Z,34.72
2022-12-18T05:21:11.337Z,33.83
2022-12-18T05:23:39.242Z,36.10
2022-12-18T05:26:08.754Z,34.33
2022-12-18T05:28:37.408Z,33.83
2022-12-18T05:31:06.105Z,34.00
2022-12-18T05:33:35.744Z,34.72
2022-12-18T05:36:05.666Z,33.65
2022-12-18T05:38:34.891Z,35.28
2022-12-18T05:41:03.200Z,35.80
2022-12-18T05:43:31.010Z,36.72
2022-12-18T05:45:58.662Z,36.75
2022-12-18T05:48:26.224Z,36.50
2022-12-18T05:50:53.773Z,35.92
2022-12-18T05:53:21.916Z,34.60
2022-12-18T05:55:49.697Z,34.90
2022-12-18T05:58:17.535Z,36.83
2022-12-18T06:00:49.849Z,37.35
2022-12-18T06:03:17.608Z,36.92
2022-12-18T06:05:46.917Z,35.42
2022-12-18T06:08:14.852Z,34.90
2022-12-18T06:13:10.091Z,34.80
2022-12-18T06:15:38.407Z,32.95
2022-12-18T06:18:06.103Z,32.75
2022-12-18T06:20:34.215Z,33.88
2022-12-18T06:23:04.037Z,34.10
2022-12-18T06:25:31.550Z,34.63
2022-12-18T06:27:59.013Z,34.08
2022-12-18T06:30:27.377Z,32.35
2022-12-18T06:32:56.905Z,33.33
2022-12-18T06:35:24.987Z,32.63
2022-12-18T06:37:52.615Z,32.08
2022-12-18T06:40:20.230Z,29.55
2022-12-18T06:42:47.825Z,28.40
2022-12-18T06:45:16.767Z,31.50
2022-12-18T06:47:44.694Z,30.98
2022-12-18T06:50:13.607Z,31.13
2022-12-18T06:52:41.284Z,30.42
2022-12-18T06:55:12.351Z,28.75
2022-12-18T06:57:39.922Z,30.38
2022-12-18T07:00:08.407Z,27.95
2022-12-18T07:02:36.486Z,30.85
2022-12-18T07:05:10.675Z,28.85
2022-12-18T07:07:38.711Z,28.83
2022-12-18T07:10:06.641Z,29.75
2022-12-18T07:12:34.239Z,28.02
2022-12-18T07:15:01.812Z,29.17
2022-12-18T07:17:30.537Z,29.00
2022-12-18T07:19:58.084Z,29.27
2022-12-18T07:22:27.067Z,29.30
2022-12-18T07:24:54.783Z,28.83
2022-12-18T07:27:23.093Z,30.58
2022-12-18T07:29:56.015Z,28.00
2022-12-18T07:32:23.616Z,28.95
2022-12-18T07:34:51.212Z,29.25
2022-12-18T07:37:18.993Z,29.23
2022-12-18T07:39:46.878Z,29.33
2022-12-18T07:42:32.647Z,29.15
2022-12-18T07:45:02.123Z,29.40
2022-12-18T07:47:59.029Z,30.80
2022-12-18T07:50:31.935Z,28.23
2022-12-18T07:52:59.537Z,28.85
2022-12-18T07:55:27.317Z,30.60
2022-12-18T07:57:59.389Z,28.60
2022-12-18T08:00:28.462Z,29.20
2022-12-18T08:02:56.365Z,30.90
2022-12-18T08:05:27.253Z,31.20
2022-12-18T08:10:26.176Z,25.80
2022-12-18T08:12:53.850Z,29.42
2022-12-18T08:15:21.525Z,29.55
2022-12-18T08:17:49.170Z,31.73
2022-12-18T08:20:18.175Z,31.30
2022-12-18T08:22:46.139Z,31.05
2022-12-18T08:25:13.913Z,31.02
2022-12-18T08:27:44.541Z,32.20
2022-12-18T08:30:12.766Z,32.55
2022-12-18T08:32:41.715Z,32.95
2022-12-18T08:35:09.899Z,32.35
2022-12-18T08:37:41.058Z,31.35
2022-12-18T08:40:13.915Z,32.95
2022-12-18T08:43:02.049Z,32.97
2022-12-18T08:47:57.232Z,31.15
2022-12-18T08:50:24.913Z,31.58
2022-12-18T08:52:52.518Z,32.40
2022-12-18T08:55:20.239Z,32.92
2022-12-18T08:57:51.807Z,32.70
2022-12-18T09:00:19.670Z,32.58
2022-12-18T09:02:47.402Z,33.58
2022-12-18T09:05:17.915Z,33.33
2022-12-18T09:07:45.551Z,32.65
2022-12-18T09:12:43.411Z,31.98
2022-12-18T09:15:14.238Z,31.92
2022-12-18T09:17:42.099Z,33.50
2022-12-18T09:20:10.515Z,32.53
2022-12-18T09:22:40.865Z,33.38
2022-12-18T09:25:08.999Z,33.83
2022-12-18T09:27:41.344Z,33.88
2022-12-18T09:30:09.558Z,34.53
2022-12-18T09:32:37.204Z,32.95
2022-12-18T09:35:10.243Z,33.40
2022-12-18T09:37:37.973Z,32.63
2022-12-18T09:40:06.199Z,32.58
2022-12-18T09:45:02.174Z,31.15
2022-12-18T09:47:39.074Z,31.88
2022-12-18T09:50:30.612Z,34.20
2022-12-18T09:53:03.847Z,33.80
2022-12-18T09:55:47.240Z,33.65
2022-12-18T09:58:22.472Z,33.08
2022-12-18T10:01:13.681Z,31.10
2022-12-18T10:03:46.242Z,32.30
2022-12-18T10:06:48.902Z,31.42
2022-12-18T10:09:40.896Z,30.17
2022-12-18T10:12:17.658Z,31.00
2022-12-18T10:15:14.573Z,29.70
2022-12-18T10:18:00.422Z,29.83
2022-12-18T10:20:50.266Z,28.63
2022-12-18T10:23:35.453Z,27.27
2022-12-18T10:26:08.606Z,27.80
2022-12-18T10:28:40.167Z,28.30
2022-12-18T10:31:14.199Z,27.52
2022-12-18T10:33:42.282Z,27.10
2022-12-18T10:38:38.179Z,25.90
2022-12-18T10:41:29.693Z,27.33
2022-12-18T10:44:24.466Z,26.08
2022-12-18T10:46:57.056Z,25.30
2022-12-18T10:49:28.222Z,25.13
2022-12-18T10:52:18.496Z,24.70
2022-12-18T10:54:56.382Z,24.67
2022-12-18T10:57:39.972Z,25.35
2022-12-18T11:00:32.520Z,24.55
2022-12-18T11:03:00.652Z,24.02
2022-12-18T11:05:28.577Z,24.42
2022-12-18T11:08:02.694Z,24.08
2022-12-18T11:10:40.137Z,25.13
2022-12-18T11:13:45.511Z,25.23
2022-12-18T11:16:22.207Z,23.85
2022-12-18T11:18:55.812Z,25.63
2022-12-18T11:25:36.290Z,24.17
2022-12-18T11:37:38.000Z,25.45
2022-12-18T11:41:01.895Z,27.35
2022-12-18T11:43:55.130Z,27.30
2022-12-18T11:50:45.421Z,28.40
2022-12-18T11:54:20.267Z,27.40
2022-12-18T12:00:13.566Z,27.33
2022-12-18T12:03:24.451Z,29.50
2022-12-18T12:07:00.033Z,30.77
2022-12-18T12:10:29.383Z,28.85
2022-12-18T12:36:12.117Z,29.60
2022-12-18T12:38:51.828Z,30.65
2022-12-18T12:41:45.203Z,30.75
2022-12-18T12:44:43.925Z,29.63
2022-12-18T12:47:22.093Z,30.98
2022-12-18T12:49:53.305Z,30.65
2022-12-18T12:52:36.014Z,32.60
2022-12-18T12:55:17.000Z,33.35
2022-12-18T12:58:13.496Z,33.17
2022-12-18T13:08:22.559Z,30.10
2022-12-18T13:11:11.421Z,30.55
2022-12-18T13:13:52.162Z,30.30
2022-12-18T13:16:22.910Z,30.25
2022-12-18T13:18:57.774Z,30.23
2022-12-18T13:21:29.686Z,30.35
2022-12-18T13:23:58.615Z,31.23
2022-12-18T13:26:29.077Z,30.48
2022-12-18T13:28:59.092Z,29.73
2022-12-18T13:32:26.357Z,29.92
2022-12-18T13:35:28.710Z,26.92
2022-12-18T13:37:59.490Z,22.60
2022-12-18T13:40:49.111Z,27.63
2022-12-18T13:43:22.795Z,28.55
2022-12-18T13:46:20.092Z,27.92
2022-12-18T13:49:03.708Z,25.45
2022-12-18T13:51:34.140Z,26.17
2022-12-18T13:54:07.047Z,25.83
2022-12-18T13:56:35.308Z,24.92
2022-12-18T13:59:23.053Z,24.85
2022-12-18T14:01:56.116Z,25.30
2022-12-18T14:04:36.052Z,26.00
2022-12-18T14:07:15.499Z,26.17
2022-12-18T14:09:50.396Z,25.88
2022-12-18T14:12:41.285Z,25.13
2022-12-18T14:15:27.399Z,23.88
2022-12-18T14:18:00.210Z,24.05
2022-12-18T14:20:32.066Z,24.70
2022-12-18T14:23:01.142Z,23.45
2022-12-18T14:25:30.984Z,24.88
2022-12-18T14:28:07.502Z,23.67
2022-12-18T14:30:40.521Z,23.58
2022-12-18T14:33:19.692Z,23.45
2022-12-18T14:35:57.237Z,22.23
2022-12-18T14:38:30.991Z,24.27
2022-12-18T14:41:00.611Z,23.15
2022-12-18T14:43:30.181Z,23.90
2022-12-18T14:45:58.568Z,22.98
2022-12-18T14:48:40.030Z,23.35
2022-12-18T14:51:15.768Z,22.80
2022-12-18T14:54:05.731Z,21.63
2022-12-18T14:56:37.975Z,22.17
2022-12-18T14:59:23.795Z,22.15
2022-12-18T15:02:20.891Z,22.98
2022-12-18T15:04:48.705Z,22.90
2022-12-18T15:07:24.377Z,21.88
2022-12-18T15:10:13.009Z,21.70
2022-12-18T15:12:51.197Z,21.52
2022-12-18T15:15:45.991Z,23.23
2022-12-18T15:18:18.570Z,22.63
2022-12-18T15:20:49.452Z,21.85
2022-12-18T15:23:24.328Z,22.15
2022-12-18T15:26:02.295Z,21.52
2022-12-18T15:31:16.197Z,17.55
2022-12-18T15:34:08.655Z,20.88
2022-12-18T15:36:37.440Z,20.27
2022-12-18T15:39:06.631Z,23.13
2022-12-18T15:41:36.831Z,21.92
2022-12-18T15:44:24.243Z,21.83
2022-12-18T15:46:51.893Z,22.88
2022-12-18T15:49:19.328Z,23.27
2022-12-18T15:51:53.835Z,18.75
2022-12-18T15:55:00.497Z,21.27
2022-12-18T15:57:28.137Z,20.63
2022-12-18T16:00:00.124Z,20.33
2022-12-18T16:02:29.429Z,19.95
2022-12-18T16:04:57.360Z,19.73
2022-12-18T16:07:28.145Z,19.85
2022-12-18T16:09:58.863Z,19.50
2022-12-18T16:12:27.916Z,19.00
2022-12-18T16:14:55.429Z,17.80
2022-12-18T16:17:22.822Z,16.92
2022-12-18T16:19:50.267Z,14.88
2022-12-18T16:22:22.265Z,16.50
2022-12-18T16:24:50.899Z,14.65
2022-12-18T16:27:21.168Z,13.02
2022-12-18T16:29:49.250Z,13.80
2022-12-18T16:32:20.067Z,13.48
2022-12-18T16:34:47.998Z,11.63
2022-12-18T16:37:18.249Z,12.88
2022-12-18T16:39:45.777Z,12.80
2022-12-18T16:42:20.181Z,12.07
2022-12-18T16:44:49.561Z,11.95
2022-12-18T16:47:17.888Z,11.98
2022-12-18T16:49:46.147Z,11.93
2022-12-18T16:52:14.510Z,11.25
2022-12-18T16:57:14.382Z,11.60
2022-12-18T16:59:42.040Z,10.93
2022-12-18T17:02:24.510Z,10.68
2022-12-18T17:04:58.377Z,10.80
2022-12-18T17:07:27.990Z,12.25
2022-12-18T17:09:55.774Z,12.38
2022-12-18T17:12:23.618Z,11.82
2022-12-18T17:14:51.277Z,12.43
2022-12-18T17:17:21.246Z,13.52
2022-12-18T17:19:49.607Z,12.93
2022-12-18T17:22:17.049Z,14.13
2022-12-18T17:24:47.875Z,12.95
2022-12-18T17:27:15.691Z,12.68
2022-12-18T17:29:48.427Z,13.43
2022-12-18T17:32:17.719Z,13.40
2022-12-18T17:34:49.718Z,12.60
2022-12-18T17:37:17.197Z,12.70
2022-12-18T17:39:44.745Z,11.93
2022-12-18T17:42:15.520Z,12.02
2022-12-18T17:44:44.305Z,11.30
2022-12-18T17:47:13.489Z,11.95
2022-12-18T17:49:41.146Z,11.45
2022-12-18T17:52:08.804Z,11.43
2022-12-18T17:54:39.819Z,12.05
2022-12-18T17:57:08.043Z,11.55
2022-12-18T17:59:38.169Z,9.90
2022-12-18T18:02:11.342Z,10.82
2022-12-18T18:04:40.263Z,10.90
2022-12-18T18:07:07.771Z,10.18
2022-12-18T18:09:35.323Z,9.85
2022-12-18T18:12:21.195Z,9.88
2022-12-18T18:14:48.836Z,9.65
2022-12-18T18:17:16.914Z,8.80
2022-12-18T18:19:45.922Z,10.88
2022-12-18T18:22:17.526Z,9.82
2022-12-18T18:24:46.911Z,10.13
2022-12-18T18:29:42.464Z,9.40
2022-12-18T18:32:13.247Z,9.57
2022-12-18T18:34:43.468Z,10.25
2022-12-18T18:37:12.082Z,9.73
2022-12-18T18:39:39.643Z,11.00
2022-12-18T18:42:07.612Z,10.30
2022-12-18T18:47:04.245Z,10.43
2022-12-18T18:49:34.410Z,10.82
2022-12-18T18:52:02.727Z,10.15
2022-12-18T18:54:31.099Z,10.05
2022-12-18T18:59:48.649Z,10.20
2022-12-18T19:02:17.597Z,9.82
2022-12-18T19:04:46.756Z,10.00
2022-12-18T19:07:19.740Z,9.93
2022-12-18T19:09:59.580Z,10.18
2022-12-18T19:12:53.887Z,10.07
2022-12-18T19:15:25.819Z,9.40
2022-12-18T19:17:53.428Z,9.88
2022-12-18T19:20:21.487Z,9.93
2022-12-18T19:22:55.559Z,10.48
2022-12-18T19:25:39.981Z,10.73
2022-12-18T19:28:21.214Z,10.05
2022-12-18T19:30:56.068Z,9.75
2022-12-18T19:33:44.633Z,9.55
2022-12-18T19:36:12.798Z,10.55
2022-12-18T19:38:42.745Z,10.85
2022-12-18T19:41:14.295Z,11.27
2022-12-18T19:43:43.111Z,11.38
2022-12-18T19:46:14.641Z,10.13
2022-12-18T19:48:44.248Z,11.75
2022-12-18T19:51:16.383Z,12.98
2022-12-18T19:53:45.880Z,13.05
2022-12-18T19:56:16.088Z,12.23
2022-12-18T19:58:44.892Z,9.98
2022-12-18T20:01:16.535Z,11.15
2022-12-18T20:03:52.547Z,11.77
2022-12-18T20:06:29.486Z,12.18
2022-12-18T20:09:00.303Z,11.70
2022-12-18T20:11:30.115Z,11.77
2022-12-18T20:14:01.656Z,10.75
2022-12-18T20:16:29.609Z,11.45
2022-12-18T20:18:58.088Z,10.27
2022-12-18T20:21:25.796Z,11.02
2022-12-18T20:23:54.827Z,11.43
2022-12-18T20:26:23.881Z,11.63
2022-12-18T20:28:51.758Z,10.48
2022-12-18T20:31:19.568Z,10.20
2022-12-18T20:33:52.066Z,10.18
2022-12-18T20:36:28.212Z,10.85
2022-12-18T20:39:00.420Z,10.23
2022-12-18T20:41:38.745Z,9.50
2022-12-18T20:44:22.388Z,9.50
2022-12-18T20:46:57.907Z,8.10
2022-12-18T20:49:26.913Z,8.05
2022-12-18T20:51:56.607Z,8.23
2022-12-18T20:54:26.675Z,7.90
2022-12-18T20:56:55.145Z,7.75
2022-12-18T20:59:25.158Z,8.13
2022-12-18T21:01:53.914Z,6.68
2022-12-18T21:04:22.146Z,7.57
2022-12-18T21:06:55.284Z,6.32
2022-12-18T21:09:28.270Z,6.18
2022-12-18T21:12:24.880Z,6.30
2022-12-18T21:14:54.988Z,6.13
2022-12-18T21:17:28.596Z,6.13
2022-12-18T21:19:57.792Z,5.70
2022-12-18T21:24:52.980Z,4.75
2022-12-18T21:27:20.933Z,5.90
2022-12-18T21:29:57.464Z,4.70
2022-12-18T21:32:25.031Z,4.65
2022-12-18T21:34:55.967Z,4.45
2022-12-18T21:37:23.482Z,4.57
2022-12-18T21:39:51.155Z,4.57
2022-12-18T21:42:37.367Z,4.15
2022-12-18T21:45:05.207Z,4.60
2022-12-18T21:47:32.715Z,4.90
2022-12-18T21:50:00.263Z,4.75
2022-12-18T21:52:31.929Z,4.60
2022-12-18T21:55:07.862Z,4.53
2022-12-18T21:57:37.913Z,4.95
2022-12-18T22:00:07.586Z,3.97
2022-12-18T22:02:40.897Z,3.85
2022-12-18T22:05:08.997Z,3.85
2022-12-18T22:07:36.456Z,3.42
2022-12-18T22:10:04.267Z,3.97
2022-12-18T22:12:43.268Z,3.45
2022-12-18T22:15:21.527Z,3.60
2022-12-18T22:17:50.896Z,3.53
2022-12-18T22:20:19.885Z,3.67
2022-12-18T22:22:48.478Z,3.22
2022-12-18T22:28:03.686Z,3.08
2022-12-18T22:32:58.850Z,2.22
2022-12-18T22:35:26.642Z,2.67
2022-12-18T22:37:54.093Z,2.70
2022-12-18T22:40:25.999Z,2.63
2022-12-18T22:42:54.675Z,2.78
2022-12-18T22:45:22.317Z,2.67
2022-12-18T22:47:50.069Z,2.70
2022-12-18T22:50:17.508Z,2.60
2022-12-18T22:52:44.975Z,2.40
2022-12-18T22:55:12.460Z,2.53
2022-12-18T22:57:41.143Z,2.80
2022-12-18T23:00:15.782Z,2.83
2022-12-18T23:02:45.032Z,3.05
2022-12-18T23:05:15.783Z,2.83
2022-12-18T23:07:43.331Z,3.60
2022-12-18T23:10:11.034Z,4.15
2022-12-18T23:12:38.478Z,3.92
2022-12-18T23:15:06.190Z,4.03
2022-12-18T23:17:33.659Z,3.95
2022-12-18T23:20:01.522Z,4.35
2022-12-18T23:22:30.438Z,4.05
2022-12-18T23:24:57.892Z,3.88
2022-12-18T23:27:25.431Z,4.07
2022-12-18T23:29:52.854Z,4.25
2022-12-18T23:32:22.863Z,4.00
2022-12-18T23:34:50.310Z,4.53
2022-12-18T23:37:35.313Z,4.18
2022-12-18T23:40:05.924Z,4.07
2022-12-18T23:42:33.436Z,4.15
2022-12-18T23:45:00.890Z,3.15
2022-12-18T23:47:31.949Z,3.38
2022-12-18T23:49:59.342Z,3.83
2022-12-18T23:52:27.007Z,3.67
2022-12-18T23:54:55.922Z,3.65
2022-12-18T23:57:23.808Z,3.53
2022-12-18T23:59:54.242Z,3.40
